DLH6LF EDDH-EDDF
Flight info
| Callsign | DLH6LF |
|---|---|
| Flight time | 0h 50m |
| Altitude | 32000 |
| Route | AMLUH M852 DENIX DCT RIMET/N0460F330 T157 KOKEB/N0425F230 T157 KERAX |
| Aircraft | A320/M-SDE3FGHIRWY/LB1 |
Departure
| Time | 2026-04-16 12:49 |
|---|---|
| Airport | Hamburg Helmut Schmidt Airport (EDDH) |
Arrival
| Time | 2026-04-16 13:39 |
|---|---|
| Airport | Frankfurt Main Airport (EDDF) |
| Time | Latitude | Longitude | Altitude | Speed | Heading |
|---|---|---|---|---|---|
| 2026-04-16 12:26 | 53.62925 | 10.00294 | 41 ft | 0 kts | 108° |
| 2026-04-16 12:42 | 53.62929 | 10.00274 | 41 ft | 2 kts | 108° |
| 2026-04-16 12:43 | 53.62934 | 10.00250 | 40 ft | 2 kts | 108° |
| 2026-04-16 12:43 | 53.62938 | 10.00227 | 40 ft | 2 kts | 108° |
| 2026-04-16 12:43 | 53.62944 | 10.00203 | 39 ft | 2 kts | 124° |
| 2026-04-16 12:43 | 53.62954 | 10.00185 | 39 ft | 2 kts | 147° |
| 2026-04-16 12:44 | 53.62968 | 10.00175 | 39 ft | 2 kts | 171° |
| 2026-04-16 12:44 | 53.62983 | 10.00175 | 39 ft | 2 kts | 193° |
| 2026-04-16 12:44 | 53.62994 | 10.00181 | 39 ft | 0 kts | 211° |
| 2026-04-16 12:44 | 53.63000 | 10.00188 | 39 ft | 0 kts | 214° |
| 2026-04-16 12:46 | 53.62995 | 10.00183 | 39 ft | 2 kts | 213° |
| 2026-04-16 12:47 | 53.62968 | 10.00152 | 38 ft | 7 kts | 213° |
| 2026-04-16 12:47 | 53.62905 | 10.00085 | 34 ft | 13 kts | 212° |
| 2026-04-16 12:47 | 53.62843 | 9.99958 | 32 ft | 15 kts | 242° |
| 2026-04-16 12:47 | 53.62807 | 9.99842 | 33 ft | 6 kts | 251° |
| 2026-04-16 12:48 | 53.62834 | 9.99776 | 32 ft | 9 kts | 332° |
| 2026-04-16 12:48 | 53.62933 | 9.99690 | 30 ft | 39 kts | 333° |
| 2026-04-16 12:48 | 53.63408 | 9.99276 | 34 ft | 111 kts | 333° |
| 2026-04-16 12:48 | 53.64270 | 9.98531 | 52 ft | 166 kts | 330° |
| 2026-04-16 12:49 | 53.65328 | 9.97632 | 568 ft | 172 kts | 330° |
| 2026-04-16 12:49 | 53.66360 | 9.96747 | 1392 ft | 166 kts | 329° |
| 2026-04-16 12:49 | 53.67376 | 9.95873 | 2099 ft | 167 kts | 329° |
| 2026-04-16 12:49 | 53.68472 | 9.94994 | 2484 ft | 184 kts | 338° |
| 2026-04-16 12:50 | 53.69796 | 9.94591 | 2886 ft | 203 kts | 353° |
| 2026-04-16 12:50 | 53.71250 | 9.94530 | 3311 ft | 220 kts | 357° |
| 2026-04-16 12:50 | 53.72766 | 9.95115 | 3952 ft | 233 kts | 30° |
| 2026-04-16 12:50 | 53.73841 | 9.97123 | 4723 ft | 239 kts | 64° |
| 2026-04-16 12:51 | 53.74218 | 9.99807 | 5503 ft | 240 kts | 84° |
| 2026-04-16 12:51 | 53.74003 | 10.02613 | 6017 ft | 252 kts | 119° |
| 2026-04-16 12:51 | 53.72810 | 10.04805 | 6539 ft | 259 kts | 153° |
| 2026-04-16 12:51 | 53.71127 | 10.05958 | 7067 ft | 270 kts | 166° |
| 2026-04-16 12:52 | 53.69300 | 10.06872 | 7681 ft | 281 kts | 166° |
| 2026-04-16 12:52 | 53.67444 | 10.07861 | 8506 ft | 285 kts | 164° |
| 2026-04-16 12:52 | 53.65596 | 10.08993 | 9347 ft | 289 kts | 162° |
| 2026-04-16 12:52 | 53.63721 | 10.10237 | 10166 ft | 293 kts | 161° |
| 2026-04-16 12:53 | 53.61817 | 10.11543 | 10836 ft | 302 kts | 161° |
| 2026-04-16 12:53 | 53.59825 | 10.12925 | 11247 ft | 320 kts | 160° |
| 2026-04-16 12:53 | 53.57719 | 10.14398 | 11605 ft | 338 kts | 160° |
| 2026-04-16 12:53 | 53.55523 | 10.15940 | 11938 ft | 355 kts | 160° |
| 2026-04-16 12:54 | 53.53202 | 10.17573 | 12508 ft | 363 kts | 160° |
| 2026-04-16 12:54 | 53.50926 | 10.19177 | 13226 ft | 366 kts | 160° |
| 2026-04-16 12:54 | 53.48577 | 10.20832 | 13965 ft | 370 kts | 160° |
| 2026-04-16 12:54 | 53.46200 | 10.22501 | 14612 ft | 374 kts | 160° |
| 2026-04-16 12:55 | 53.43794 | 10.24188 | 15267 ft | 378 kts | 160° |
| 2026-04-16 12:55 | 53.41372 | 10.25881 | 15877 ft | 381 kts | 160° |
| 2026-04-16 12:55 | 53.38965 | 10.27565 | 16485 ft | 384 kts | 160° |
| 2026-04-16 12:55 | 53.36477 | 10.29303 | 17090 ft | 387 kts | 160° |
| 2026-04-16 12:56 | 53.34020 | 10.31016 | 17665 ft | 390 kts | 160° |
| 2026-04-16 12:56 | 53.31519 | 10.32759 | 18241 ft | 393 kts | 160° |
| 2026-04-16 12:56 | 53.28985 | 10.34522 | 18791 ft | 396 kts | 160° |
| 2026-04-16 12:56 | 53.26426 | 10.36300 | 19316 ft | 399 kts | 160° |
| 2026-04-16 12:57 | 53.23884 | 10.38063 | 19798 ft | 403 kts | 160° |
| 2026-04-16 12:57 | 53.21287 | 10.39861 | 20276 ft | 406 kts | 160° |
| 2026-04-16 12:57 | 53.18689 | 10.41658 | 20749 ft | 410 kts | 160° |
| 2026-04-16 12:57 | 53.16039 | 10.43476 | 21214 ft | 413 kts | 162° |
| 2026-04-16 12:58 | 53.13298 | 10.44796 | 21639 ft | 412 kts | 173° |
| 2026-04-16 12:58 | 53.10488 | 10.45296 | 22063 ft | 410 kts | 182° |
| 2026-04-16 12:58 | 53.07615 | 10.45079 | 22497 ft | 411 kts | 188° |
| 2026-04-16 12:58 | 53.04783 | 10.44679 | 22917 ft | 414 kts | 189° |
| 2026-04-16 12:59 | 53.01933 | 10.44253 | 23323 ft | 416 kts | 189° |
| 2026-04-16 12:59 | 52.99039 | 10.43828 | 23746 ft | 419 kts | 189° |
| 2026-04-16 12:59 | 52.96158 | 10.43414 | 24171 ft | 422 kts | 189° |
| 2026-04-16 13:00 | 52.90290 | 10.42595 | 24995 ft | 427 kts | 189° |
| 2026-04-16 13:00 | 52.87293 | 10.42180 | 25395 ft | 429 kts | 189° |
| 2026-04-16 13:00 | 52.84338 | 10.41775 | 25778 ft | 431 kts | 189° |
| 2026-04-16 13:00 | 52.81354 | 10.41366 | 26136 ft | 434 kts | 189° |
| 2026-04-16 13:01 | 52.78332 | 10.40958 | 26454 ft | 437 kts | 189° |
| 2026-04-16 13:01 | 52.75329 | 10.40549 | 26771 ft | 439 kts | 189° |
| 2026-04-16 13:01 | 52.72261 | 10.40133 | 27109 ft | 442 kts | 189° |
| 2026-04-16 13:01 | 52.69229 | 10.39723 | 27438 ft | 444 kts | 189° |
| 2026-04-16 13:02 | 52.66143 | 10.39307 | 27752 ft | 446 kts | 189° |
| 2026-04-16 13:02 | 52.63040 | 10.38891 | 28061 ft | 449 kts | 189° |
| 2026-04-16 13:02 | 52.59955 | 10.38476 | 28377 ft | 450 kts | 189° |
| 2026-04-16 13:02 | 52.56846 | 10.38061 | 28658 ft | 452 kts | 189° |
| 2026-04-16 13:03 | 52.53709 | 10.37639 | 28942 ft | 454 kts | 189° |
| 2026-04-16 13:03 | 52.50541 | 10.37213 | 29210 ft | 456 kts | 189° |
| 2026-04-16 13:03 | 52.47373 | 10.36790 | 29460 ft | 458 kts | 190° |
| 2026-04-16 13:03 | 52.44216 | 10.36371 | 29775 ft | 458 kts | 190° |
| 2026-04-16 13:04 | 52.41035 | 10.35948 | 30137 ft | 457 kts | 190° |
| 2026-04-16 13:04 | 52.37872 | 10.35529 | 30493 ft | 457 kts | 190° |
| 2026-04-16 13:04 | 52.34734 | 10.35112 | 30776 ft | 457 kts | 190° |
| 2026-04-16 13:04 | 52.31586 | 10.34692 | 30986 ft | 459 kts | 190° |
| 2026-04-16 13:05 | 52.28389 | 10.34265 | 31183 ft | 461 kts | 190° |
| 2026-04-16 13:05 | 52.25232 | 10.33845 | 31387 ft | 462 kts | 190° |
| 2026-04-16 13:05 | 52.22033 | 10.33422 | 31622 ft | 463 kts | 190° |
| 2026-04-16 13:05 | 52.18814 | 10.32997 | 31838 ft | 464 kts | 190° |
| 2026-04-16 13:06 | 52.15622 | 10.32577 | 32015 ft | 465 kts | 190° |
| 2026-04-16 13:06 | 52.12361 | 10.32147 | 32178 ft | 466 kts | 191° |
| 2026-04-16 13:06 | 52.09181 | 10.31729 | 32187 ft | 467 kts | 191° |
| 2026-04-16 13:07 | 52.02682 | 10.30877 | 32190 ft | 468 kts | 191° |
| 2026-04-16 13:07 | 51.96210 | 10.30029 | 32193 ft | 469 kts | 191° |
| 2026-04-16 13:08 | 51.89769 | 10.29191 | 32193 ft | 469 kts | 191° |
| 2026-04-16 13:08 | 51.83269 | 10.28345 | 32192 ft | 469 kts | 191° |
| 2026-04-16 13:09 | 51.76783 | 10.27504 | 32191 ft | 468 kts | 191° |
| 2026-04-16 13:09 | 51.70283 | 10.26662 | 32192 ft | 469 kts | 191° |
| 2026-04-16 13:10 | 51.63788 | 10.25824 | 32190 ft | 470 kts | 191° |
| 2026-04-16 13:10 | 51.57337 | 10.24994 | 32195 ft | 469 kts | 191° |
| 2026-04-16 13:11 | 51.50815 | 10.24157 | 32195 ft | 469 kts | 191° |
| 2026-04-16 13:11 | 51.44323 | 10.23325 | 32195 ft | 470 kts | 191° |
| 2026-04-16 13:12 | 51.37866 | 10.22502 | 32197 ft | 469 kts | 191° |
| 2026-04-16 13:12 | 51.31329 | 10.21883 | 32196 ft | 473 kts | 186° |
| 2026-04-16 13:13 | 51.24801 | 10.21761 | 32195 ft | 474 kts | 187° |
| 2026-04-16 13:13 | 51.18230 | 10.21624 | 32195 ft | 474 kts | 187° |
| 2026-04-16 13:14 | 51.11599 | 10.21489 | 32198 ft | 475 kts | 187° |
| 2026-04-16 13:14 | 51.05032 | 10.21374 | 32198 ft | 475 kts | 186° |
| 2026-04-16 13:15 | 50.98428 | 10.21257 | 32199 ft | 475 kts | 186° |
| 2026-04-16 13:15 | 50.91864 | 10.21140 | 32199 ft | 474 kts | 187° |
| 2026-04-16 13:16 | 50.85403 | 10.20643 | 32184 ft | 464 kts | 199° |
| 2026-04-16 13:16 | 50.82410 | 10.18956 | 32038 ft | 451 kts | 214° |
| 2026-04-16 13:16 | 50.79875 | 10.16266 | 31776 ft | 439 kts | 226° |
| 2026-04-16 13:16 | 50.77717 | 10.12945 | 31507 ft | 429 kts | 235° |
| 2026-04-16 13:17 | 50.75976 | 10.09170 | 31070 ft | 420 kts | 244° |
| 2026-04-16 13:17 | 50.74628 | 10.05183 | 30418 ft | 417 kts | 248° |
| 2026-04-16 13:17 | 50.73348 | 10.01120 | 29632 ft | 417 kts | 248° |
| 2026-04-16 13:17 | 50.72060 | 9.97014 | 28833 ft | 416 kts | 248° |
| 2026-04-16 13:18 | 50.70778 | 9.92956 | 28326 ft | 414 kts | 248° |
| 2026-04-16 13:18 | 50.69489 | 9.88905 | 27800 ft | 412 kts | 248° |
| 2026-04-16 13:18 | 50.68238 | 9.84998 | 27292 ft | 408 kts | 248° |
| 2026-04-16 13:18 | 50.66994 | 9.81127 | 26766 ft | 405 kts | 248° |
| 2026-04-16 13:19 | 50.65716 | 9.77167 | 26234 ft | 401 kts | 247° |
| 2026-04-16 13:19 | 50.64475 | 9.73329 | 25703 ft | 398 kts | 246° |
| 2026-04-16 13:19 | 50.62912 | 9.69689 | 25146 ft | 402 kts | 233° |
| 2026-04-16 13:19 | 50.60829 | 9.66796 | 24599 ft | 407 kts | 219° |
| 2026-04-16 13:20 | 50.58320 | 9.64729 | 24069 ft | 412 kts | 208° |
| 2026-04-16 13:20 | 50.55666 | 9.63092 | 23545 ft | 409 kts | 206° |
| 2026-04-16 13:20 | 50.53032 | 9.61519 | 23028 ft | 405 kts | 206° |
| 2026-04-16 13:20 | 50.50441 | 9.59880 | 22500 ft | 399 kts | 212° |
| 2026-04-16 13:21 | 50.48254 | 9.57364 | 21947 ft | 383 kts | 232° |
| 2026-04-16 13:21 | 50.46775 | 9.54021 | 21428 ft | 371 kts | 249° |
| 2026-04-16 13:21 | 50.45951 | 9.50295 | 20916 ft | 364 kts | 257° |
| 2026-04-16 13:21 | 50.45254 | 9.46486 | 20407 ft | 361 kts | 257° |
| 2026-04-16 13:22 | 50.44563 | 9.42726 | 19895 ft | 359 kts | 257° |
| 2026-04-16 13:22 | 50.43874 | 9.39021 | 19392 ft | 357 kts | 256° |
| 2026-04-16 13:22 | 50.43179 | 9.35332 | 18873 ft | 355 kts | 256° |
| 2026-04-16 13:22 | 50.42479 | 9.31646 | 18356 ft | 354 kts | 255° |
| 2026-04-16 13:23 | 50.41778 | 9.27970 | 17839 ft | 353 kts | 255° |
| 2026-04-16 13:23 | 50.41044 | 9.24306 | 17308 ft | 352 kts | 253° |
| 2026-04-16 13:23 | 50.40221 | 9.20712 | 16780 ft | 352 kts | 252° |
| 2026-04-16 13:23 | 50.39402 | 9.17177 | 16271 ft | 351 kts | 252° |
| 2026-04-16 13:24 | 50.38568 | 9.13579 | 15750 ft | 349 kts | 252° |
| 2026-04-16 13:24 | 50.37748 | 9.10046 | 15242 ft | 348 kts | 252° |
| 2026-04-16 13:24 | 50.36916 | 9.06467 | 14727 ft | 347 kts | 251° |
| 2026-04-16 13:24 | 50.36103 | 9.02973 | 14218 ft | 345 kts | 251° |
| 2026-04-16 13:25 | 50.35279 | 8.99442 | 13709 ft | 343 kts | 251° |
| 2026-04-16 13:25 | 50.34464 | 8.95952 | 13215 ft | 342 kts | 251° |
| 2026-04-16 13:25 | 50.33660 | 8.92516 | 12717 ft | 340 kts | 251° |
| 2026-04-16 13:25 | 50.32805 | 8.89147 | 12191 ft | 339 kts | 244° |
| 2026-04-16 13:26 | 50.31299 | 8.86355 | 11678 ft | 341 kts | 219° |
| 2026-04-16 13:26 | 50.29168 | 8.84767 | 11169 ft | 344 kts | 194° |
| 2026-04-16 13:26 | 50.26791 | 8.84837 | 10734 ft | 348 kts | 167° |
| 2026-04-16 13:26 | 50.24658 | 8.86609 | 10344 ft | 353 kts | 139° |
| 2026-04-16 13:27 | 50.23285 | 8.89697 | 10187 ft | 345 kts | 110° |
| 2026-04-16 13:27 | 50.22951 | 8.93286 | 10091 ft | 331 kts | 84° |
| 2026-04-16 13:27 | 50.23517 | 8.96601 | 10021 ft | 314 kts | 67° |
| 2026-04-16 13:27 | 50.24300 | 8.99645 | 9948 ft | 300 kts | 66° |
| 2026-04-16 13:28 | 50.25063 | 9.02627 | 9884 ft | 297 kts | 67° |
| 2026-04-16 13:28 | 50.25802 | 9.05630 | 9682 ft | 296 kts | 68° |
| 2026-04-16 13:28 | 50.26520 | 9.08653 | 9401 ft | 295 kts | 68° |
| 2026-04-16 13:28 | 50.27187 | 9.11651 | 9070 ft | 294 kts | 75° |
| 2026-04-16 13:29 | 50.27197 | 9.14778 | 8704 ft | 293 kts | 106° |
| 2026-04-16 13:29 | 50.26225 | 9.17516 | 8348 ft | 288 kts | 135° |
| 2026-04-16 13:29 | 50.24658 | 9.19443 | 8057 ft | 284 kts | 148° |
| 2026-04-16 13:29 | 50.22939 | 9.20591 | 7701 ft | 280 kts | 175° |
| 2026-04-16 13:30 | 50.21069 | 9.20136 | 7366 ft | 270 kts | 210° |
| 2026-04-16 13:30 | 50.19686 | 9.18242 | 7057 ft | 263 kts | 236° |
| 2026-04-16 13:30 | 50.18924 | 9.15671 | 6855 ft | 263 kts | 254° |
| 2026-04-16 13:30 | 50.18441 | 9.12993 | 6679 ft | 254 kts | 255° |
| 2026-04-16 13:31 | 50.17950 | 9.10416 | 6500 ft | 246 kts | 253° |
| 2026-04-16 13:31 | 50.17432 | 9.07942 | 6324 ft | 239 kts | 252° |
| 2026-04-16 13:31 | 50.16896 | 9.05531 | 6142 ft | 233 kts | 251° |
| 2026-04-16 13:31 | 50.16349 | 9.03145 | 5966 ft | 232 kts | 251° |
| 2026-04-16 13:32 | 50.15807 | 9.00808 | 5790 ft | 232 kts | 250° |
| 2026-04-16 13:32 | 50.15257 | 8.98456 | 5617 ft | 231 kts | 250° |
| 2026-04-16 13:32 | 50.14708 | 8.96115 | 5444 ft | 230 kts | 250° |
| 2026-04-16 13:32 | 50.14158 | 8.93772 | 5267 ft | 229 kts | 250° |
| 2026-04-16 13:33 | 50.13653 | 8.91459 | 5094 ft | 228 kts | 252° |
| 2026-04-16 13:33 | 50.13153 | 8.89092 | 4991 ft | 227 kts | 251° |
| 2026-04-16 13:33 | 50.12634 | 8.86767 | 4934 ft | 229 kts | 250° |
| 2026-04-16 13:33 | 50.12098 | 8.84475 | 4692 ft | 226 kts | 250° |
| 2026-04-16 13:34 | 50.11564 | 8.82257 | 4389 ft | 227 kts | 249° |
| 2026-04-16 13:34 | 50.11005 | 8.79964 | 4066 ft | 220 kts | 249° |
| 2026-04-16 13:34 | 50.10480 | 8.77818 | 3758 ft | 208 kts | 249° |
| 2026-04-16 13:34 | 50.09986 | 8.75790 | 3469 ft | 199 kts | 249° |
| 2026-04-16 13:35 | 50.09517 | 8.73864 | 3258 ft | 187 kts | 250° |
| 2026-04-16 13:35 | 50.09082 | 8.72073 | 3043 ft | 174 kts | 250° |
| 2026-04-16 13:35 | 50.08678 | 8.70402 | 2799 ft | 162 kts | 250° |
| 2026-04-16 13:35 | 50.08297 | 8.68828 | 2538 ft | 150 kts | 250° |
| 2026-04-16 13:36 | 50.07951 | 8.67393 | 2300 ft | 138 kts | 249° |
| 2026-04-16 13:36 | 50.07633 | 8.66075 | 2100 ft | 131 kts | 249° |
| 2026-04-16 13:36 | 50.07318 | 8.64769 | 1939 ft | 131 kts | 250° |
| 2026-04-16 13:36 | 50.07002 | 8.63456 | 1776 ft | 131 kts | 250° |
| 2026-04-16 13:37 | 50.06679 | 8.62115 | 1602 ft | 131 kts | 250° |
| 2026-04-16 13:37 | 50.06357 | 8.60809 | 1419 ft | 131 kts | 249° |
| 2026-04-16 13:37 | 50.06038 | 8.59484 | 1237 ft | 130 kts | 250° |
| 2026-04-16 13:37 | 50.05726 | 8.58174 | 1057 ft | 131 kts | 250° |
| 2026-04-16 13:38 | 50.05419 | 8.56851 | 878 ft | 131 kts | 250° |
| 2026-04-16 13:38 | 50.05094 | 8.55505 | 695 ft | 132 kts | 249° |
| 2026-04-16 13:38 | 50.04774 | 8.54173 | 518 ft | 133 kts | 250° |
| 2026-04-16 13:38 | 50.04454 | 8.52831 | 365 ft | 129 kts | 250° |
| 2026-04-16 13:39 | 50.04189 | 8.51730 | 360 ft | 85 kts | 250° |
| 2026-04-16 13:39 | 50.04038 | 8.51150 | 362 ft | 42 kts | 237° |
| 2026-04-16 13:39 | 50.03879 | 8.50878 | 357 ft | 23 kts | 222° |
| 2026-04-16 13:39 | 50.03783 | 8.50921 | 358 ft | 19 kts | 77° |
| 2026-04-16 13:40 | 50.03828 | 8.51111 | 359 ft | 18 kts | 68° |
| 2026-04-16 13:40 | 50.03872 | 8.51299 | 360 ft | 18 kts | 70° |
| 2026-04-16 13:40 | 50.03916 | 8.51486 | 361 ft | 18 kts | 70° |
| 2026-04-16 13:40 | 50.03960 | 8.51670 | 359 ft | 19 kts | 70° |
| 2026-04-16 13:41 | 50.04008 | 8.51871 | 359 ft | 20 kts | 70° |
| 2026-04-16 13:41 | 50.04060 | 8.52087 | 357 ft | 20 kts | 70° |
| 2026-04-16 13:41 | 50.04110 | 8.52296 | 359 ft | 20 kts | 70° |
| 2026-04-16 13:41 | 50.04154 | 8.52481 | 362 ft | 18 kts | 70° |
| 2026-04-16 13:42 | 50.04201 | 8.52678 | 361 ft | 19 kts | 69° |
| 2026-04-16 13:42 | 50.04251 | 8.52884 | 359 ft | 20 kts | 70° |
| 2026-04-16 13:42 | 50.04301 | 8.53097 | 355 ft | 21 kts | 70° |
| 2026-04-16 13:42 | 50.04354 | 8.53315 | 354 ft | 21 kts | 70° |
| 2026-04-16 13:43 | 50.04398 | 8.53539 | 354 ft | 21 kts | 84° |
| 2026-04-16 13:43 | 50.04413 | 8.53767 | 355 ft | 20 kts | 85° |
| 2026-04-16 13:43 | 50.04426 | 8.53976 | 356 ft | 19 kts | 85° |
| 2026-04-16 13:43 | 50.04439 | 8.54184 | 356 ft | 19 kts | 83° |
| 2026-04-16 13:44 | 50.04453 | 8.54387 | 356 ft | 17 kts | 85° |
| 2026-04-16 13:44 | 50.04436 | 8.54567 | 355 ft | 17 kts | 109° |
| 2026-04-16 13:44 | 50.04366 | 8.54718 | 354 ft | 18 kts | 141° |
| 2026-04-16 13:44 | 50.04250 | 8.54808 | 353 ft | 18 kts | 160° |
| 2026-04-16 13:45 | 50.04144 | 8.54867 | 353 ft | 15 kts | 161° |
| 2026-04-16 13:45 | 50.04035 | 8.54929 | 350 ft | 17 kts | 158° |
| 2026-04-16 13:45 | 50.03917 | 8.55001 | 348 ft | 16 kts | 161° |
| 2026-04-16 13:45 | 50.03847 | 8.55101 | 349 ft | 14 kts | 87° |
| 2026-04-16 13:46 | 50.03878 | 8.55239 | 350 ft | 13 kts | 70° |
| 2026-04-16 13:46 | 50.03914 | 8.55385 | 351 ft | 15 kts | 69° |
| 2026-04-16 13:46 | 50.03952 | 8.55547 | 351 ft | 17 kts | 70° |
| 2026-04-16 13:46 | 50.03996 | 8.55730 | 352 ft | 18 kts | 70° |
| 2026-04-16 13:47 | 50.04042 | 8.55924 | 353 ft | 18 kts | 69° |
| 2026-04-16 13:47 | 50.04084 | 8.56095 | 355 ft | 17 kts | 69° |
| 2026-04-16 13:47 | 50.04123 | 8.56261 | 358 ft | 16 kts | 70° |
| 2026-04-16 13:47 | 50.04163 | 8.56430 | 359 ft | 16 kts | 69° |
| 2026-04-16 13:48 | 50.04200 | 8.56583 | 361 ft | 15 kts | 70° |
| 2026-04-16 13:48 | 50.04237 | 8.56741 | 364 ft | 14 kts | 70° |
| 2026-04-16 13:48 | 50.04301 | 8.56813 | 368 ft | 11 kts | 12° |
| 2026-04-16 13:48 | 50.04380 | 8.56838 | 370 ft | 12 kts | 12° |
| 2026-04-16 13:49 | 50.04465 | 8.56859 | 372 ft | 13 kts | 9° |
| 2026-04-16 13:49 | 50.04544 | 8.56888 | 373 ft | 8 kts | 15° |
| 2026-04-16 13:49 | 50.04572 | 8.56890 | 374 ft | 2 kts | 320° |
| 2026-04-16 13:49 | 50.04583 | 8.56855 | 374 ft | 4 kts | 295° |
| 2026-04-16 13:50 | 50.04597 | 8.56809 | 374 ft | 5 kts | 295° |
| 2026-04-16 13:50 | 50.04605 | 8.56780 | 374 ft | 0 kts | 295° |